sensor_id;sensor_type;location;lat;lon;timestamp;P1;durP1;ratioP1;P2;durP2;ratioP2
55308;SDS011;44028;51.358;19.876;2023-02-03T00:01:03;8.00;;;4.75;;
55308;SDS011;44028;51.358;19.876;2023-02-03T00:03:30;7.68;;;4.15;;
55308;SDS011;44028;51.358;19.876;2023-02-03T00:06:12;12.02;;;5.10;;
55308;SDS011;44028;51.358;19.876;2023-02-03T00:09:15;10.48;;;5.05;;
55308;SDS011;44028;51.358;19.876;2023-02-03T00:11:43;8.85;;;5.20;;
55308;SDS011;44028;51.358;19.876;2023-02-03T00:14:10;9.27;;;4.55;;
55308;SDS011;44028;51.358;19.876;2023-02-03T00:16:37;9.50;;;4.65;;
55308;SDS011;44028;51.358;19.876;2023-02-03T00:19:14;9.00;;;4.05;;
55308;SDS011;44028;51.358;19.876;2023-02-03T00:21:45;9.93;;;4.85;;
55308;SDS011;44028;51.358;19.876;2023-02-03T00:24:33;9.52;;;5.47;;
55308;SDS011;44028;51.358;19.876;2023-02-03T00:27:02;10.55;;;5.07;;
55308;SDS011;44028;51.358;19.876;2023-02-03T00:29:28;24.67;;;8.07;;
55308;SDS011;44028;51.358;19.876;2023-02-03T00:31:58;17.02;;;6.00;;
55308;SDS011;44028;51.358;19.876;2023-02-03T00:34:28;14.18;;;5.28;;
55308;SDS011;44028;51.358;19.876;2023-02-03T00:36:55;13.43;;;6.38;;
55308;SDS011;44028;51.358;19.876;2023-02-03T00:39:22;20.73;;;7.53;;
55308;SDS011;44028;51.358;19.876;2023-02-03T00:41:52;19.13;;;7.60;;
55308;SDS011;44028;51.358;19.876;2023-02-03T00:44:19;14.75;;;6.57;;
55308;SDS011;44028;51.358;19.876;2023-02-03T00:46:46;17.27;;;6.88;;
55308;SDS011;44028;51.358;19.876;2023-02-03T00:49:14;15.05;;;6.53;;
55308;SDS011;44028;51.358;19.876;2023-02-03T00:51:40;11.88;;;5.20;;
55308;SDS011;44028;51.358;19.876;2023-02-03T00:54:07;17.58;;;7.75;;
55308;SDS011;44028;51.358;19.876;2023-02-03T00:56:35;13.60;;;6.47;;
55308;SDS011;44028;51.358;19.876;2023-02-03T00:59:16;14.18;;;6.10;;
55308;SDS011;44028;51.358;19.876;2023-02-03T01:01:54;17.85;;;6.97;;
55308;SDS011;44028;51.358;19.876;2023-02-03T01:04:20;16.27;;;6.05;;
55308;SDS011;44028;51.358;19.876;2023-02-03T01:06:50;8.60;;;4.05;;
55308;SDS011;44028;51.358;19.876;2023-02-03T01:09:23;11.35;;;4.43;;
55308;SDS011;44028;51.358;19.876;2023-02-03T01:11:51;13.25;;;5.40;;
55308;SDS011;44028;51.358;19.876;2023-02-03T01:14:19;16.92;;;6.32;;
55308;SDS011;44028;51.358;19.876;2023-02-03T01:16:46;20.00;;;6.60;;
55308;SDS011;44028;51.358;19.876;2023-02-03T01:19:13;12.30;;;5.25;;
55308;SDS011;44028;51.358;19.876;2023-02-03T01:21:41;16.15;;;5.82;;
55308;SDS011;44028;51.358;19.876;2023-02-03T01:24:11;8.63;;;3.95;;
55308;SDS011;44028;51.358;19.876;2023-02-03T01:26:49;15.20;;;5.55;;
55308;SDS011;44028;51.358;19.876;2023-02-03T01:29:16;6.00;;;2.90;;
55308;SDS011;44028;51.358;19.876;2023-02-03T01:31:43;8.65;;;4.03;;
55308;SDS011;44028;51.358;19.876;2023-02-03T01:34:12;13.80;;;5.40;;
55308;SDS011;44028;51.358;19.876;2023-02-03T01:36:39;9.43;;;4.05;;
55308;SDS011;44028;51.358;19.876;2023-02-03T01:39:06;6.05;;;3.20;;
55308;SDS011;44028;51.358;19.876;2023-02-03T01:41:37;9.50;;;4.30;;
55308;SDS011;44028;51.358;19.876;2023-02-03T01:46:45;7.93;;;3.33;;
55308;SDS011;44028;51.358;19.876;2023-02-03T01:49:26;8.43;;;4.20;;
55308;SDS011;44028;51.358;19.876;2023-02-03T01:51:56;9.70;;;3.83;;
55308;SDS011;44028;51.358;19.876;2023-02-03T01:54:24;7.03;;;3.72;;
55308;SDS011;44028;51.358;19.876;2023-02-03T01:57:00;12.52;;;5.00;;
55308;SDS011;44028;51.358;19.876;2023-02-03T01:59:29;13.35;;;5.35;;
55308;SDS011;44028;51.358;19.876;2023-02-03T02:01:56;23.33;;;6.88;;
55308;SDS011;44028;51.358;19.876;2023-02-03T02:04:25;23.25;;;6.78;;
55308;SDS011;44028;51.358;19.876;2023-02-03T02:06:57;22.33;;;7.22;;
55308;SDS011;44028;51.358;19.876;2023-02-03T02:09:27;23.35;;;8.00;;
55308;SDS011;44028;51.358;19.876;2023-02-03T02:11:57;52.78;;;13.88;;
55308;SDS011;44028;51.358;19.876;2023-02-03T02:14:24;23.85;;;7.28;;
55308;SDS011;44028;51.358;19.876;2023-02-03T02:16:52;20.38;;;7.15;;
55308;SDS011;44028;51.358;19.876;2023-02-03T02:33:25;10.25;;;4.55;;
55308;SDS011;44028;51.358;19.876;2023-02-03T02:43:50;10.55;;;4.15;;
55308;SDS011;44028;51.358;19.876;2023-02-03T02:46:26;12.48;;;4.47;;
55308;SDS011;44028;51.358;19.876;2023-02-03T02:49:08;9.98;;;4.32;;
55308;SDS011;44028;51.358;19.876;2023-02-03T02:51:37;15.55;;;4.57;;
55308;SDS011;44028;51.358;19.876;2023-02-03T02:54:05;14.05;;;5.20;;
55308;SDS011;44028;51.358;19.876;2023-02-03T02:56:33;10.48;;;4.20;;
55308;SDS011;44028;51.358;19.876;2023-02-03T02:59:02;11.00;;;4.30;;
55308;SDS011;44028;51.358;19.876;2023-02-03T03:01:30;9.98;;;4.63;;
55308;SDS011;44028;51.358;19.876;2023-02-03T03:03:58;8.90;;;4.78;;
55308;SDS011;44028;51.358;19.876;2023-02-03T03:06:31;9.73;;;4.50;;
55308;SDS011;44028;51.358;19.876;2023-02-03T03:11:35;10.98;;;4.40;;
55308;SDS011;44028;51.358;19.876;2023-02-03T03:14:04;8.10;;;4.20;;
55308;SDS011;44028;51.358;19.876;2023-02-03T03:16:33;8.10;;;4.35;;
55308;SDS011;44028;51.358;19.876;2023-02-03T03:19:02;6.00;;;3.25;;
55308;SDS011;44028;51.358;19.876;2023-02-03T03:21:39;5.85;;;3.70;;
55308;SDS011;44028;51.358;19.876;2023-02-03T03:24:09;5.65;;;3.30;;
55308;SDS011;44028;51.358;19.876;2023-02-03T03:26:41;4.85;;;3.40;;
55308;SDS011;44028;51.358;19.876;2023-02-03T03:29:29;4.25;;;3.10;;
55308;SDS011;44028;51.358;19.876;2023-02-03T03:31:57;4.78;;;3.25;;
55308;SDS011;44028;51.358;19.876;2023-02-03T03:34:24;5.75;;;2.92;;
55308;SDS011;44028;51.358;19.876;2023-02-03T03:36:56;6.20;;;3.33;;
55308;SDS011;44028;51.358;19.876;2023-02-03T03:44:44;6.07;;;3.40;;
55308;SDS011;44028;51.358;19.876;2023-02-03T03:47:15;7.32;;;3.33;;
55308;SDS011;44028;51.358;19.876;2023-02-03T03:49:44;5.55;;;3.10;;
55308;SDS011;44028;51.358;19.876;2023-02-03T03:52:14;7.75;;;3.38;;
55308;SDS011;44028;51.358;19.876;2023-02-03T03:54:41;5.82;;;3.40;;
55308;SDS011;44028;51.358;19.876;2023-02-03T03:57:13;6.35;;;3.60;;
55308;SDS011;44028;51.358;19.876;2023-02-03T03:59:44;6.45;;;3.58;;
55308;SDS011;44028;51.358;19.876;2023-02-03T04:02:12;6.93;;;3.60;;
55308;SDS011;44028;51.358;19.876;2023-02-03T04:04:43;7.95;;;3.80;;
55308;SDS011;44028;51.358;19.876;2023-02-03T04:07:13;6.07;;;3.50;;
55308;SDS011;44028;51.358;19.876;2023-02-03T04:09:41;5.72;;;3.50;;
55308;SDS011;44028;51.358;19.876;2023-02-03T04:12:12;6.13;;;3.67;;
55308;SDS011;44028;51.358;19.876;2023-02-03T04:14:41;6.50;;;3.50;;
55308;SDS011;44028;51.358;19.876;2023-02-03T04:17:08;7.45;;;3.88;;
55308;SDS011;44028;51.358;19.876;2023-02-03T04:19:35;5.97;;;3.63;;
55308;SDS011;44028;51.358;19.876;2023-02-03T04:22:01;5.93;;;3.70;;
55308;SDS011;44028;51.358;19.876;2023-02-03T04:24:29;7.28;;;4.03;;
55308;SDS011;44028;51.358;19.876;2023-02-03T04:26:55;12.60;;;5.57;;
55308;SDS011;44028;51.358;19.876;2023-02-03T04:29:22;10.38;;;5.22;;
55308;SDS011;44028;51.358;19.876;2023-02-03T04:31:49;9.82;;;4.72;;
55308;SDS011;44028;51.358;19.876;2023-02-03T04:34:16;9.23;;;4.30;;
55308;SDS011;44028;51.358;19.876;2023-02-03T04:36:42;6.60;;;3.78;;
55308;SDS011;44028;51.358;19.876;2023-02-03T04:39:09;8.68;;;3.92;;
55308;SDS011;44028;51.358;19.876;2023-02-03T04:41:36;7.90;;;3.80;;
55308;SDS011;44028;51.358;19.876;2023-02-03T04:44:03;6.90;;;3.83;;
55308;SDS011;44028;51.358;19.876;2023-02-03T04:46:30;12.23;;;4.32;;
55308;SDS011;44028;51.358;19.876;2023-02-03T04:48:56;13.63;;;6.05;;
55308;SDS011;44028;51.358;19.876;2023-02-03T04:51:26;16.50;;;5.35;;
55308;SDS011;44028;51.358;19.876;2023-02-03T04:53:52;10.25;;;4.72;;
55308;SDS011;44028;51.358;19.876;2023-02-03T04:56:19;10.55;;;4.40;;
55308;SDS011;44028;51.358;19.876;2023-02-03T04:58:45;12.05;;;5.00;;
55308;SDS011;44028;51.358;19.876;2023-02-03T05:01:12;8.43;;;4.28;;
55308;SDS011;44028;51.358;19.876;2023-02-03T05:03:39;8.23;;;4.72;;
55308;SDS011;44028;51.358;19.876;2023-02-03T05:06:06;8.98;;;4.10;;
55308;SDS011;44028;51.358;19.876;2023-02-03T05:08:33;7.57;;;4.20;;
55308;SDS011;44028;51.358;19.876;2023-02-03T05:11:00;10.70;;;4.68;;
55308;SDS011;44028;51.358;19.876;2023-02-03T05:13:28;7.25;;;4.30;;
55308;SDS011;44028;51.358;19.876;2023-02-03T05:15:54;8.65;;;4.50;;
55308;SDS011;44028;51.358;19.876;2023-02-03T05:18:21;9.07;;;4.35;;
55308;SDS011;44028;51.358;19.876;2023-02-03T05:20:51;9.40;;;4.80;;
55308;SDS011;44028;51.358;19.876;2023-02-03T05:23:18;8.35;;;4.40;;
55308;SDS011;44028;51.358;19.876;2023-02-03T05:25:45;6.90;;;4.15;;
55308;SDS011;44028;51.358;19.876;2023-02-03T05:28:11;9.93;;;4.30;;
55308;SDS011;44028;51.358;19.876;2023-02-03T05:30:38;9.02;;;4.35;;
55308;SDS011;44028;51.358;19.876;2023-02-03T05:33:05;7.90;;;4.47;;
55308;SDS011;44028;51.358;19.876;2023-02-03T05:35:32;8.75;;;4.03;;
55308;SDS011;44028;51.358;19.876;2023-02-03T05:37:59;6.38;;;4.03;;
55308;SDS011;44028;51.358;19.876;2023-02-03T05:40:26;8.02;;;4.15;;
55308;SDS011;44028;51.358;19.876;2023-02-03T05:43:05;19.58;;;8.70;;
55308;SDS011;44028;51.358;19.876;2023-02-03T05:45:33;18.13;;;8.60;;
55308;SDS011;44028;51.358;19.876;2023-02-03T05:48:00;13.75;;;5.00;;
55308;SDS011;44028;51.358;19.876;2023-02-03T05:50:30;11.07;;;5.80;;
55308;SDS011;44028;51.358;19.876;2023-02-03T05:53:04;12.43;;;5.60;;
55308;SDS011;44028;51.358;19.876;2023-02-03T05:55:31;11.95;;;5.75;;
55308;SDS011;44028;51.358;19.876;2023-02-03T05:57:58;16.33;;;6.35;;
55308;SDS011;44028;51.358;19.876;2023-02-03T06:00:27;15.90;;;6.70;;
55308;SDS011;44028;51.358;19.876;2023-02-03T06:02:58;19.88;;;6.60;;
55308;SDS011;44028;51.358;19.876;2023-02-03T06:05:27;17.48;;;7.82;;
55308;SDS011;44028;51.358;19.876;2023-02-03T06:07:54;14.63;;;7.72;;
55308;SDS011;44028;51.358;19.876;2023-02-03T06:10:21;14.65;;;7.25;;
55308;SDS011;44028;51.358;19.876;2023-02-03T06:12:48;14.90;;;6.20;;
55308;SDS011;44028;51.358;19.876;2023-02-03T06:15:14;13.05;;;5.68;;
55308;SDS011;44028;51.358;19.876;2023-02-03T06:17:44;12.85;;;6.35;;
55308;SDS011;44028;51.358;19.876;2023-02-03T06:20:13;12.75;;;6.03;;
55308;SDS011;44028;51.358;19.876;2023-02-03T06:22:40;16.88;;;6.75;;
55308;SDS011;44028;51.358;19.876;2023-02-03T06:25:07;17.83;;;7.70;;
55308;SDS011;44028;51.358;19.876;2023-02-03T06:27:42;16.25;;;6.95;;
55308;SDS011;44028;51.358;19.876;2023-02-03T06:30:15;27.20;;;8.75;;
55308;SDS011;44028;51.358;19.876;2023-02-03T06:33:26;21.05;;;9.05;;
55308;SDS011;44028;51.358;19.876;2023-02-03T06:35:57;16.83;;;9.32;;
55308;SDS011;44028;51.358;19.876;2023-02-03T06:38:39;16.80;;;8.05;;
55308;SDS011;44028;51.358;19.876;2023-02-03T06:41:14;27.45;;;11.75;;
55308;SDS011;44028;51.358;19.876;2023-02-03T06:43:54;35.10;;;13.30;;
55308;SDS011;44028;51.358;19.876;2023-02-03T06:46:41;24.23;;;10.48;;
55308;SDS011;44028;51.358;19.876;2023-02-03T06:49:13;23.90;;;9.93;;
55308;SDS011;44028;51.358;19.876;2023-02-03T06:51:43;24.77;;;10.00;;
55308;SDS011;44028;51.358;19.876;2023-02-03T06:54:21;34.15;;;12.20;;
55308;SDS011;44028;51.358;19.876;2023-02-03T06:56:56;33.20;;;11.32;;
55308;SDS011;44028;51.358;19.876;2023-02-03T06:59:36;34.88;;;12.65;;
55308;SDS011;44028;51.358;19.876;2023-02-03T07:02:06;34.15;;;13.43;;
55308;SDS011;44028;51.358;19.876;2023-02-03T07:04:41;37.65;;;15.52;;
55308;SDS011;44028;51.358;19.876;2023-02-03T07:07:11;49.25;;;18.90;;
55308;SDS011;44028;51.358;19.876;2023-02-03T07:09:42;44.85;;;16.52;;
55308;SDS011;44028;51.358;19.876;2023-02-03T07:12:11;37.25;;;12.88;;
55308;SDS011;44028;51.358;19.876;2023-02-03T07:14:42;34.88;;;12.50;;
55308;SDS011;44028;51.358;19.876;2023-02-03T07:17:19;26.58;;;11.93;;
55308;SDS011;44028;51.358;19.876;2023-02-03T07:19:52;23.25;;;8.40;;
55308;SDS011;44028;51.358;19.876;2023-02-03T07:22:21;16.23;;;7.72;;
55308;SDS011;44028;51.358;19.876;2023-02-03T07:24:51;19.17;;;8.48;;
55308;SDS011;44028;51.358;19.876;2023-02-03T07:27:31;25.63;;;10.40;;
55308;SDS011;44028;51.358;19.876;2023-02-03T07:30:13;26.00;;;9.60;;
55308;SDS011;44028;51.358;19.876;2023-02-03T07:32:59;17.00;;;8.70;;
55308;SDS011;44028;51.358;19.876;2023-02-03T07:35:30;22.75;;;8.93;;
55308;SDS011;44028;51.358;19.876;2023-02-03T07:37:57;25.05;;;9.63;;
55308;SDS011;44028;51.358;19.876;2023-02-03T07:40:35;27.80;;;11.00;;
55308;SDS011;44028;51.358;19.876;2023-02-03T07:43:08;27.77;;;10.45;;
55308;SDS011;44028;51.358;19.876;2023-02-03T07:48:41;30.00;;;9.80;;
55308;SDS011;44028;51.358;19.876;2023-02-03T07:51:30;25.70;;;9.50;;
55308;SDS011;44028;51.358;19.876;2023-02-03T07:54:07;23.55;;;8.60;;
55308;SDS011;44028;51.358;19.876;2023-02-03T07:56:52;30.55;;;11.85;;
55308;SDS011;44028;51.358;19.876;2023-02-03T07:59:49;35.30;;;15.48;;
55308;SDS011;44028;51.358;19.876;2023-02-03T08:02:31;34.03;;;14.15;;
55308;SDS011;44028;51.358;19.876;2023-02-03T08:05:03;28.63;;;9.82;;
55308;SDS011;44028;51.358;19.876;2023-02-03T08:07:36;26.60;;;9.27;;
55308;SDS011;44028;51.358;19.876;2023-02-03T08:10:15;25.92;;;12.02;;
55308;SDS011;44028;51.358;19.876;2023-02-03T08:12:53;40.58;;;13.77;;
55308;SDS011;44028;51.358;19.876;2023-02-03T08:15:23;51.22;;;15.18;;
55308;SDS011;44028;51.358;19.876;2023-02-03T08:18:14;39.90;;;13.63;;
55308;SDS011;44028;51.358;19.876;2023-02-03T08:21:10;50.30;;;15.10;;
55308;SDS011;44028;51.358;19.876;2023-02-03T08:23:59;24.27;;;12.05;;
55308;SDS011;44028;51.358;19.876;2023-02-03T08:26:39;21.25;;;9.32;;
55308;SDS011;44028;51.358;19.876;2023-02-03T08:29:12;16.50;;;7.10;;
55308;SDS011;44028;51.358;19.876;2023-02-03T08:32:01;16.38;;;7.13;;
55308;SDS011;44028;51.358;19.876;2023-02-03T08:37:39;15.57;;;6.47;;
55308;SDS011;44028;51.358;19.876;2023-02-03T08:40:14;22.15;;;9.95;;
55308;SDS011;44028;51.358;19.876;2023-02-03T08:42:54;16.35;;;8.43;;
55308;SDS011;44028;51.358;19.876;2023-02-03T08:45:30;14.95;;;7.55;;
55308;SDS011;44028;51.358;19.876;2023-02-03T08:48:06;18.23;;;8.00;;
55308;SDS011;44028;51.358;19.876;2023-02-03T08:51:11;16.00;;;7.85;;
55308;SDS011;44028;51.358;19.876;2023-02-03T08:54:09;17.33;;;8.10;;
55308;SDS011;44028;51.358;19.876;2023-02-03T09:00:27;15.45;;;7.60;;
55308;SDS011;44028;51.358;19.876;2023-02-03T09:03:14;15.25;;;7.57;;
55308;SDS011;44028;51.358;19.876;2023-02-03T09:12:32;17.20;;;7.68;;
55308;SDS011;44028;51.358;19.876;2023-02-03T09:15:51;24.35;;;10.48;;
55308;SDS011;44028;51.358;19.876;2023-02-03T09:19:07;14.93;;;6.25;;
55308;SDS011;44028;51.358;19.876;2023-02-03T09:28:59;22.50;;;9.73;;
55308;SDS011;44028;51.358;19.876;2023-02-03T09:31:44;21.50;;;9.55;;
55308;SDS011;44028;51.358;19.876;2023-02-03T09:34:40;18.38;;;8.52;;
55308;SDS011;44028;51.358;19.876;2023-02-03T09:37:30;20.60;;;9.82;;
55308;SDS011;44028;51.358;19.876;2023-02-03T09:39:57;23.92;;;9.25;;
55308;SDS011;44028;51.358;19.876;2023-02-03T09:42:34;19.60;;;8.45;;
55308;SDS011;44028;51.358;19.876;2023-02-03T09:45:08;16.23;;;7.28;;
55308;SDS011;44028;51.358;19.876;2023-02-03T09:47:42;15.40;;;7.43;;
55308;SDS011;44028;51.358;19.876;2023-02-03T09:50:39;16.77;;;7.18;;
55308;SDS011;44028;51.358;19.876;2023-02-03T09:58:52;16.17;;;7.88;;
55308;SDS011;44028;51.358;19.876;2023-02-03T10:01:26;19.83;;;8.50;;
55308;SDS011;44028;51.358;19.876;2023-02-03T10:06:48;17.65;;;8.70;;
55308;SDS011;44028;51.358;19.876;2023-02-03T10:15:14;30.60;;;11.27;;
55308;SDS011;44028;51.358;19.876;2023-02-03T10:17:46;18.02;;;8.05;;
55308;SDS011;44028;51.358;19.876;2023-02-03T10:23:27;26.30;;;10.95;;
55308;SDS011;44028;51.358;19.876;2023-02-03T10:26:03;37.45;;;13.68;;
55308;SDS011;44028;51.358;19.876;2023-02-03T10:28:56;48.75;;;19.17;;
55308;SDS011;44028;51.358;19.876;2023-02-03T10:31:48;37.65;;;15.52;;
55308;SDS011;44028;51.358;19.876;2023-02-03T10:34:39;45.20;;;17.08;;
55308;SDS011;44028;51.358;19.876;2023-02-03T10:37:35;58.75;;;22.33;;
55308;SDS011;44028;51.358;19.876;2023-02-03T10:40:23;58.60;;;20.60;;
55308;SDS011;44028;51.358;19.876;2023-02-03T10:43:01;51.58;;;17.48;;
55308;SDS011;44028;51.358;19.876;2023-02-03T10:45:58;41.30;;;17.63;;
55308;SDS011;44028;51.358;19.876;2023-02-03T10:48:51;50.10;;;20.38;;
55308;SDS011;44028;51.358;19.876;2023-02-03T10:54:31;35.25;;;13.80;;
55308;SDS011;44028;51.358;19.876;2023-02-03T10:57:28;26.95;;;13.65;;
55308;SDS011;44028;51.358;19.876;2023-02-03T11:00:30;23.65;;;12.60;;
55308;SDS011;44028;51.358;19.876;2023-02-03T11:06:18;24.02;;;11.57;;
55308;SDS011;44028;51.358;19.876;2023-02-03T11:08:51;24.98;;;12.00;;
55308;SDS011;44028;51.358;19.876;2023-02-03T11:11:23;29.13;;;13.88;;
55308;SDS011;44028;51.358;19.876;2023-02-03T11:13:52;39.58;;;16.58;;
55308;SDS011;44028;51.358;19.876;2023-02-03T11:16:22;20.08;;;10.68;;
55308;SDS011;44028;51.358;19.876;2023-02-03T11:19:01;24.35;;;12.10;;
55308;SDS011;44028;51.358;19.876;2023-02-03T11:21:33;18.02;;;8.43;;
55308;SDS011;44028;51.358;19.876;2023-02-03T11:24:18;20.98;;;10.23;;
55308;SDS011;44028;51.358;19.876;2023-02-03T11:26:53;14.73;;;8.48;;
55308;SDS011;44028;51.358;19.876;2023-02-03T11:29:25;14.75;;;7.70;;
55308;SDS011;44028;51.358;19.876;2023-02-03T11:36:58;33.42;;;13.02;;
55308;SDS011;44028;51.358;19.876;2023-02-03T11:39:39;32.42;;;14.25;;
55308;SDS011;44028;51.358;19.876;2023-02-03T11:44:50;28.83;;;12.13;;
55308;SDS011;44028;51.358;19.876;2023-02-03T11:47:17;27.40;;;11.88;;
55308;SDS011;44028;51.358;19.876;2023-02-03T11:55:25;28.52;;;11.90;;
55308;SDS011;44028;51.358;19.876;2023-02-03T12:01:37;31.08;;;13.73;;
55308;SDS011;44028;51.358;19.876;2023-02-03T12:07:42;20.80;;;9.40;;
55308;SDS011;44028;51.358;19.876;2023-02-03T12:10:39;24.58;;;9.05;;
55308;SDS011;44028;51.358;19.876;2023-02-03T12:13:24;25.30;;;11.88;;
55308;SDS011;44028;51.358;19.876;2023-02-03T12:30:20;19.55;;;9.35;;
55308;SDS011;44028;51.358;19.876;2023-02-03T12:40:00;22.02;;;9.98;;
55308;SDS011;44028;51.358;19.876;2023-02-03T12:45:54;19.23;;;8.65;;
55308;SDS011;44028;51.358;19.876;2023-02-03T12:48:44;19.48;;;8.95;;
55308;SDS011;44028;51.358;19.876;2023-02-03T12:58:50;22.30;;;9.77;;
55308;SDS011;44028;51.358;19.876;2023-02-03T13:01:51;22.10;;;8.98;;
55308;SDS011;44028;51.358;19.876;2023-02-03T13:05:18;24.30;;;9.75;;
55308;SDS011;44028;51.358;19.876;2023-02-03T14:03:54;68.75;;;26.55;;
55308;SDS011;44028;51.358;19.876;2023-02-03T14:37:35;29.63;;;12.63;;
55308;SDS011;44028;51.358;19.876;2023-02-03T14:54:23;65.55;;;22.60;;
55308;SDS011;44028;51.358;19.876;2023-02-03T15:14:34;61.10;;;33.47;;
55308;SDS011;44028;51.358;19.876;2023-02-03T15:17:44;26.27;;;14.90;;
55308;SDS011;44028;51.358;19.876;2023-02-03T16:02:45;74.03;;;26.90;;
55308;SDS011;44028;51.358;19.876;2023-02-03T16:06:08;77.00;;;34.10;;
55308;SDS011;44028;51.358;19.876;2023-02-03T16:22:35;43.05;;;22.17;;
55308;SDS011;44028;51.358;19.876;2023-02-03T16:38:55;43.70;;;20.67;;
55308;SDS011;44028;51.358;19.876;2023-02-03T16:51:43;53.33;;;26.95;;
55308;SDS011;44028;51.358;19.876;2023-02-03T17:11:17;34.88;;;18.48;;
55308;SDS011;44028;51.358;19.876;2023-02-03T17:14:27;33.80;;;17.10;;
55308;SDS011;44028;51.358;19.876;2023-02-03T17:20:41;233.55;;;95.75;;
55308;SDS011;44028;51.358;19.876;2023-02-03T17:27:16;331.20;;;141.10;;
55308;SDS011;44028;51.358;19.876;2023-02-03T17:30:31;132.93;;;67.55;;
55308;SDS011;44028;51.358;19.876;2023-02-03T17:33:48;64.18;;;34.53;;
55308;SDS011;44028;51.358;19.876;2023-02-03T17:36:46;51.80;;;26.83;;
55308;SDS011;44028;51.358;19.876;2023-02-03T17:39:54;44.38;;;22.42;;
55308;SDS011;44028;51.358;19.876;2023-02-03T17:42:41;38.88;;;19.33;;
55308;SDS011;44028;51.358;19.876;2023-02-03T17:45:20;100.75;;;44.03;;
55308;SDS011;44028;51.358;19.876;2023-02-03T17:48:09;65.22;;;28.48;;
55308;SDS011;44028;51.358;19.876;2023-02-03T17:50:50;62.13;;;26.33;;
55308;SDS011;44028;51.358;19.876;2023-02-03T17:53:30;67.40;;;29.90;;
55308;SDS011;44028;51.358;19.876;2023-02-03T17:55:58;43.53;;;20.42;;
55308;SDS011;44028;51.358;19.876;2023-02-03T17:58:39;48.65;;;22.05;;
55308;SDS011;44028;51.358;19.876;2023-02-03T18:01:35;43.80;;;19.60;;
55308;SDS011;44028;51.358;19.876;2023-02-03T18:04:04;32.17;;;12.80;;
55308;SDS011;44028;51.358;19.876;2023-02-03T18:06:31;37.10;;;15.00;;
55308;SDS011;44028;51.358;19.876;2023-02-03T18:09:08;35.83;;;16.38;;
55308;SDS011;44028;51.358;19.876;2023-02-03T18:11:36;31.20;;;12.75;;
55308;SDS011;44028;51.358;19.876;2023-02-03T18:14:03;24.85;;;9.93;;
55308;SDS011;44028;51.358;19.876;2023-02-03T18:16:31;38.75;;;14.52;;
55308;SDS011;44028;51.358;19.876;2023-02-03T18:18:59;37.97;;;14.40;;
55308;SDS011;44028;51.358;19.876;2023-02-03T18:21:26;29.17;;;11.45;;
55308;SDS011;44028;51.358;19.876;2023-02-03T18:23:55;29.92;;;11.75;;
55308;SDS011;44028;51.358;19.876;2023-02-03T18:26:26;24.75;;;10.48;;
55308;SDS011;44028;51.358;19.876;2023-02-03T18:29:03;30.23;;;15.32;;
55308;SDS011;44028;51.358;19.876;2023-02-03T18:31:30;29.38;;;13.77;;
55308;SDS011;44028;51.358;19.876;2023-02-03T18:34:07;27.83;;;10.75;;
55308;SDS011;44028;51.358;19.876;2023-02-03T18:36:34;25.52;;;12.50;;
55308;SDS011;44028;51.358;19.876;2023-02-03T18:39:01;24.30;;;10.00;;
55308;SDS011;44028;51.358;19.876;2023-02-03T18:41:31;22.98;;;9.13;;
55308;SDS011;44028;51.358;19.876;2023-02-03T18:44:17;24.88;;;10.20;;
55308;SDS011;44028;51.358;19.876;2023-02-03T18:46:44;27.92;;;8.48;;
55308;SDS011;44028;51.358;19.876;2023-02-03T18:49:31;30.85;;;12.10;;
55308;SDS011;44028;51.358;19.876;2023-02-03T18:52:11;33.60;;;10.02;;
55308;SDS011;44028;51.358;19.876;2023-02-03T18:54:46;23.67;;;7.53;;
55308;SDS011;44028;51.358;19.876;2023-02-03T18:57:53;28.08;;;11.70;;
55308;SDS011;44028;51.358;19.876;2023-02-03T19:00:43;21.60;;;8.52;;
55308;SDS011;44028;51.358;19.876;2023-02-03T19:03:15;25.08;;;10.70;;
55308;SDS011;44028;51.358;19.876;2023-02-03T19:05:42;23.17;;;10.40;;
55308;SDS011;44028;51.358;19.876;2023-02-03T19:08:14;24.42;;;9.55;;
55308;SDS011;44028;51.358;19.876;2023-02-03T19:10:45;28.23;;;10.93;;
55308;SDS011;44028;51.358;19.876;2023-02-03T19:13:26;27.35;;;10.82;;
55308;SDS011;44028;51.358;19.876;2023-02-03T19:15:58;28.27;;;10.05;;
55308;SDS011;44028;51.358;19.876;2023-02-03T19:18:27;18.67;;;7.50;;
55308;SDS011;44028;51.358;19.876;2023-02-03T19:20:56;23.67;;;9.20;;
55308;SDS011;44028;51.358;19.876;2023-02-03T19:23:32;22.05;;;9.88;;
55308;SDS011;44028;51.358;19.876;2023-02-03T19:26:02;27.92;;;10.70;;
55308;SDS011;44028;51.358;19.876;2023-02-03T19:28:31;31.40;;;11.70;;
55308;SDS011;44028;51.358;19.876;2023-02-03T19:31:04;29.40;;;12.32;;
55308;SDS011;44028;51.358;19.876;2023-02-03T19:33:34;35.65;;;12.30;;
55308;SDS011;44028;51.358;19.876;2023-02-03T19:36:01;32.33;;;12.60;;
55308;SDS011;44028;51.358;19.876;2023-02-03T19:38:32;28.63;;;10.93;;
55308;SDS011;44028;51.358;19.876;2023-02-03T19:41:14;31.48;;;11.00;;
55308;SDS011;44028;51.358;19.876;2023-02-03T19:49:22;32.75;;;12.82;;
55308;SDS011;44028;51.358;19.876;2023-02-03T19:52:09;32.70;;;12.90;;
55308;SDS011;44028;51.358;19.876;2023-02-03T19:54:41;103.43;;;37.80;;
55308;SDS011;44028;51.358;19.876;2023-02-03T19:57:08;54.67;;;23.20;;
55308;SDS011;44028;51.358;19.876;2023-02-03T19:59:35;72.93;;;34.35;;
55308;SDS011;44028;51.358;19.876;2023-02-03T20:02:02;136.93;;;57.97;;
55308;SDS011;44028;51.358;19.876;2023-02-03T20:04:52;112.13;;;58.17;;
55308;SDS011;44028;51.358;19.876;2023-02-03T20:07:19;51.33;;;23.38;;
55308;SDS011;44028;51.358;19.876;2023-02-03T20:09:48;33.15;;;15.48;;
55308;SDS011;44028;51.358;19.876;2023-02-03T20:12:16;41.28;;;18.67;;
55308;SDS011;44028;51.358;19.876;2023-02-03T20:14:44;47.88;;;23.38;;
55308;SDS011;44028;51.358;19.876;2023-02-03T20:17:11;44.53;;;22.10;;
55308;SDS011;44028;51.358;19.876;2023-02-03T20:19:38;46.47;;;20.70;;
55308;SDS011;44028;51.358;19.876;2023-02-03T20:22:05;52.70;;;22.52;;
55308;SDS011;44028;51.358;19.876;2023-02-03T20:24:36;41.97;;;19.75;;
55308;SDS011;44028;51.358;19.876;2023-02-03T20:27:03;60.33;;;25.75;;
55308;SDS011;44028;51.358;19.876;2023-02-03T20:29:30;59.25;;;26.13;;
55308;SDS011;44028;51.358;19.876;2023-02-03T20:31:59;67.65;;;27.10;;
55308;SDS011;44028;51.358;19.876;2023-02-03T20:34:26;59.38;;;25.25;;
55308;SDS011;44028;51.358;19.876;2023-02-03T20:36:54;50.30;;;23.27;;
55308;SDS011;44028;51.358;19.876;2023-02-03T20:39:26;48.33;;;23.25;;
55308;SDS011;44028;51.358;19.876;2023-02-03T20:41:55;65.85;;;32.38;;
55308;SDS011;44028;51.358;19.876;2023-02-03T20:44:21;59.65;;;27.60;;
55308;SDS011;44028;51.358;19.876;2023-02-03T20:46:53;38.28;;;18.00;;
55308;SDS011;44028;51.358;19.876;2023-02-03T20:49:21;43.20;;;18.92;;
55308;SDS011;44028;51.358;19.876;2023-02-03T20:51:48;53.80;;;22.58;;
55308;SDS011;44028;51.358;19.876;2023-02-03T20:54:19;56.22;;;21.00;;
55308;SDS011;44028;51.358;19.876;2023-02-03T20:56:48;47.90;;;19.70;;
55308;SDS011;44028;51.358;19.876;2023-02-03T20:59:15;43.92;;;17.60;;
55308;SDS011;44028;51.358;19.876;2023-02-03T21:01:44;46.53;;;17.77;;
55308;SDS011;44028;51.358;19.876;2023-02-03T21:04:14;47.90;;;21.33;;